UAL1609 KDFW-KIAH
Flight info
| Callsign | UAL1609 |
|---|---|
| Flight time | 0h 38m |
| Altitude | 25000 |
| Route | N0371F250 DARTZ9 TORNN GUSHR3 |
| Aircraft | B737/M-SDE3GHIRWXYZ/LB1 |
Departure
| Time | 2026-05-05 22:27 |
|---|---|
| Airport | Dallas Fort Worth International Airport (KDFW) |
Arrival
| Time | 2026-05-05 23:06 |
|---|---|
| Airport | George Bush Intercontinental Airport (KIAH) |
| Time | Latitude | Longitude | Altitude | Speed | Heading |
|---|---|---|---|---|---|
| 2026-05-05 20:51 | 32.89327 | -97.03844 | 584 ft | 0 kts | 170° |
| 2026-05-05 22:17 | 32.89342 | -97.03847 | 584 ft | 4 kts | 169° |
| 2026-05-05 22:17 | 32.89366 | -97.03854 | 584 ft | 4 kts | 149° |
| 2026-05-05 22:17 | 32.89382 | -97.03875 | 585 ft | 4 kts | 101° |
| 2026-05-05 22:18 | 32.89384 | -97.03895 | 585 ft | 2 kts | 91° |
| 2026-05-05 22:18 | 32.89384 | -97.03898 | 585 ft | 1 kts | 91° |
| 2026-05-05 22:20 | 32.89384 | -97.03897 | 585 ft | 1 kts | 91° |
| 2026-05-05 22:20 | 32.89383 | -97.03871 | 585 ft | 5 kts | 89° |
| 2026-05-05 22:20 | 32.89383 | -97.03814 | 585 ft | 9 kts | 91° |
| 2026-05-05 22:21 | 32.89382 | -97.03729 | 584 ft | 12 kts | 91° |
| 2026-05-05 22:21 | 32.89380 | -97.03615 | 584 ft | 15 kts | 92° |
| 2026-05-05 22:21 | 32.89378 | -97.03477 | 584 ft | 18 kts | 90° |
| 2026-05-05 22:21 | 32.89379 | -97.03357 | 584 ft | 12 kts | 90° |
| 2026-05-05 22:22 | 32.89395 | -97.03275 | 582 ft | 13 kts | 91° |
| 2026-05-05 22:22 | 32.89450 | -97.03192 | 579 ft | 16 kts | 359° |
| 2026-05-05 22:22 | 32.89558 | -97.03196 | 579 ft | 15 kts | 2° |
| 2026-05-05 22:22 | 32.89663 | -97.03194 | 579 ft | 15 kts | 360° |
| 2026-05-05 22:23 | 32.89763 | -97.03194 | 577 ft | 14 kts | 0° |
| 2026-05-05 22:23 | 32.89858 | -97.03193 | 580 ft | 13 kts | 0° |
| 2026-05-05 22:23 | 32.89952 | -97.03192 | 579 ft | 14 kts | 360° |
| 2026-05-05 22:23 | 32.90075 | -97.03192 | 579 ft | 21 kts | 0° |
| 2026-05-05 22:24 | 32.90246 | -97.03190 | 575 ft | 27 kts | 1° |
| 2026-05-05 22:24 | 32.90428 | -97.03189 | 573 ft | 25 kts | 359° |
| 2026-05-05 22:24 | 32.90595 | -97.03188 | 576 ft | 23 kts | 0° |
| 2026-05-05 22:24 | 32.90752 | -97.03189 | 575 ft | 22 kts | 0° |
| 2026-05-05 22:25 | 32.90905 | -97.03187 | 578 ft | 22 kts | 0° |
| 2026-05-05 22:25 | 32.91064 | -97.03186 | 577 ft | 24 kts | 1° |
| 2026-05-05 22:25 | 32.91237 | -97.03186 | 580 ft | 25 kts | 0° |
| 2026-05-05 22:25 | 32.91400 | -97.03184 | 580 ft | 23 kts | 360° |
| 2026-05-05 22:26 | 32.91544 | -97.03175 | 574 ft | 16 kts | 31° |
| 2026-05-05 22:26 | 32.91559 | -97.03060 | 577 ft | 14 kts | 90° |
| 2026-05-05 22:26 | 32.91533 | -97.02985 | 581 ft | 7 kts | 182° |
| 2026-05-05 22:26 | 32.91437 | -97.02989 | 577 ft | 37 kts | 180° |
| 2026-05-05 22:27 | 32.90953 | -97.02991 | 576 ft | 101 kts | 180° |
| 2026-05-05 22:27 | 32.90057 | -97.02999 | 573 ft | 153 kts | 178° |
| 2026-05-05 22:27 | 32.88921 | -97.02960 | 950 ft | 164 kts | 182° |
| 2026-05-05 22:27 | 32.87776 | -97.02931 | 1565 ft | 166 kts | 183° |
| 2026-05-05 22:28 | 32.86548 | -97.02932 | 1901 ft | 195 kts | 185° |
| 2026-05-05 22:28 | 32.85113 | -97.02938 | 2414 ft | 212 kts | 185° |
| 2026-05-05 22:28 | 32.83638 | -97.02939 | 3266 ft | 213 kts | 184° |
| 2026-05-05 22:28 | 32.82139 | -97.02944 | 4048 ft | 220 kts | 183° |
| 2026-05-05 22:29 | 32.80508 | -97.02955 | 4397 ft | 251 kts | 184° |
| 2026-05-05 22:29 | 32.78700 | -97.02967 | 5027 ft | 263 kts | 182° |
| 2026-05-05 22:29 | 32.76881 | -97.02975 | 6061 ft | 261 kts | 184° |
| 2026-05-05 22:29 | 32.75055 | -97.02986 | 6972 ft | 264 kts | 184° |
| 2026-05-05 22:30 | 32.73207 | -97.02999 | 7925 ft | 266 kts | 185° |
| 2026-05-05 22:30 | 32.71353 | -97.02999 | 8953 ft | 268 kts | 182° |
| 2026-05-05 22:30 | 32.69480 | -97.02454 | 9788 ft | 289 kts | 163° |
| 2026-05-05 22:30 | 32.67638 | -97.01481 | 10574 ft | 298 kts | 162° |
| 2026-05-05 22:31 | 32.65654 | -97.00431 | 11005 ft | 321 kts | 162° |
| 2026-05-05 22:31 | 32.63578 | -96.99349 | 11785 ft | 329 kts | 163° |
| 2026-05-05 22:31 | 32.61491 | -96.98272 | 12760 ft | 331 kts | 164° |
| 2026-05-05 22:31 | 32.59366 | -96.97195 | 13762 ft | 332 kts | 166° |
| 2026-05-05 22:32 | 32.57210 | -96.96142 | 14591 ft | 338 kts | 166° |
| 2026-05-05 22:32 | 32.55014 | -96.95044 | 15436 ft | 344 kts | 165° |
| 2026-05-05 22:32 | 32.52797 | -96.93883 | 16298 ft | 350 kts | 165° |
| 2026-05-05 22:32 | 32.50577 | -96.92706 | 17143 ft | 356 kts | 165° |
| 2026-05-05 22:33 | 32.48301 | -96.91497 | 17978 ft | 361 kts | 166° |
| 2026-05-05 22:33 | 32.45983 | -96.90269 | 18702 ft | 367 kts | 166° |
| 2026-05-05 22:33 | 32.43631 | -96.89028 | 19388 ft | 374 kts | 166° |
| 2026-05-05 22:33 | 32.41237 | -96.87766 | 20147 ft | 378 kts | 166° |
| 2026-05-05 22:34 | 32.38838 | -96.86499 | 21055 ft | 377 kts | 167° |
| 2026-05-05 22:34 | 32.36437 | -96.85233 | 21959 ft | 377 kts | 168° |
| 2026-05-05 22:34 | 32.34056 | -96.83982 | 22749 ft | 380 kts | 168° |
| 2026-05-05 22:34 | 32.31613 | -96.82704 | 23487 ft | 385 kts | 168° |
| 2026-05-05 22:35 | 32.29168 | -96.81421 | 24215 ft | 385 kts | 168° |
| 2026-05-05 22:35 | 32.26659 | -96.80230 | 24573 ft | 392 kts | 173° |
| 2026-05-05 22:35 | 32.24055 | -96.79194 | 24742 ft | 400 kts | 174° |
| 2026-05-05 22:35 | 32.21340 | -96.78191 | 24762 ft | 416 kts | 174° |
| 2026-05-05 22:36 | 32.18521 | -96.77156 | 24769 ft | 431 kts | 174° |
| 2026-05-05 22:36 | 32.15648 | -96.76082 | 24748 ft | 445 kts | 173° |
| 2026-05-05 22:36 | 32.12651 | -96.74936 | 24761 ft | 456 kts | 172° |
| 2026-05-05 22:36 | 32.09596 | -96.73750 | 24767 ft | 465 kts | 172° |
| 2026-05-05 22:37 | 32.07542 | -96.72947 | 24762 ft | 471 kts | 172° |
| 2026-05-05 22:37 | 32.04412 | -96.71721 | 24755 ft | 477 kts | 172° |
| 2026-05-05 22:37 | 32.00203 | -96.70075 | 24756 ft | 484 kts | 172° |
| 2026-05-05 22:37 | 31.98067 | -96.69241 | 24755 ft | 486 kts | 171° |
| 2026-05-05 22:38 | 31.94844 | -96.67972 | 24759 ft | 491 kts | 170° |
| 2026-05-05 22:38 | 31.91648 | -96.66390 | 24758 ft | 501 kts | 164° |
| 2026-05-05 22:38 | 31.88504 | -96.64606 | 24737 ft | 503 kts | 162° |
| 2026-05-05 22:38 | 31.85368 | -96.62755 | 24760 ft | 504 kts | 162° |
| 2026-05-05 22:39 | 31.82228 | -96.60902 | 24759 ft | 504 kts | 162° |
| 2026-05-05 22:39 | 31.79078 | -96.59068 | 24761 ft | 504 kts | 163° |
| 2026-05-05 22:39 | 31.75959 | -96.57282 | 24764 ft | 503 kts | 163° |
| 2026-05-05 22:39 | 31.72809 | -96.55498 | 24801 ft | 503 kts | 163° |
| 2026-05-05 22:40 | 31.69637 | -96.53712 | 24792 ft | 503 kts | 163° |
| 2026-05-05 22:40 | 31.66476 | -96.51935 | 24792 ft | 502 kts | 163° |
| 2026-05-05 22:40 | 31.63323 | -96.50163 | 24747 ft | 501 kts | 163° |
| 2026-05-05 22:40 | 31.60217 | -96.48415 | 24761 ft | 500 kts | 163° |
| 2026-05-05 22:41 | 31.57083 | -96.46652 | 24771 ft | 499 kts | 163° |
| 2026-05-05 22:41 | 31.53944 | -96.44889 | 24766 ft | 500 kts | 163° |
| 2026-05-05 22:41 | 31.50805 | -96.43134 | 24775 ft | 500 kts | 163° |
| 2026-05-05 22:41 | 31.47657 | -96.41381 | 24775 ft | 501 kts | 163° |
| 2026-05-05 22:42 | 31.44511 | -96.39631 | 24775 ft | 501 kts | 163° |
| 2026-05-05 22:42 | 31.41341 | -96.37870 | 24779 ft | 502 kts | 163° |
| 2026-05-05 22:42 | 31.38222 | -96.36137 | 24779 ft | 502 kts | 163° |
| 2026-05-05 22:42 | 31.35063 | -96.34381 | 24757 ft | 502 kts | 163° |
| 2026-05-05 22:43 | 31.31905 | -96.32627 | 24767 ft | 502 kts | 163° |
| 2026-05-05 22:43 | 31.28735 | -96.30867 | 24780 ft | 502 kts | 163° |
| 2026-05-05 22:43 | 31.25579 | -96.29117 | 24785 ft | 502 kts | 163° |
| 2026-05-05 22:43 | 31.22460 | -96.27388 | 24779 ft | 502 kts | 163° |
| 2026-05-05 22:44 | 31.19298 | -96.25637 | 24780 ft | 502 kts | 163° |
| 2026-05-05 22:44 | 31.16142 | -96.23890 | 24788 ft | 502 kts | 163° |
| 2026-05-05 22:44 | 31.12979 | -96.22141 | 24782 ft | 502 kts | 163° |
| 2026-05-05 22:44 | 31.09817 | -96.20393 | 24783 ft | 501 kts | 163° |
| 2026-05-05 22:45 | 31.06662 | -96.18651 | 24778 ft | 501 kts | 163° |
| 2026-05-05 22:45 | 31.03514 | -96.16914 | 24782 ft | 501 kts | 163° |
| 2026-05-05 22:45 | 31.00399 | -96.15196 | 24788 ft | 501 kts | 163° |
| 2026-05-05 22:45 | 30.97243 | -96.13457 | 24791 ft | 501 kts | 163° |
| 2026-05-05 22:46 | 30.94086 | -96.11719 | 24789 ft | 501 kts | 163° |
| 2026-05-05 22:46 | 30.90927 | -96.09982 | 24796 ft | 501 kts | 163° |
| 2026-05-05 22:46 | 30.87789 | -96.08253 | 24779 ft | 490 kts | 163° |
| 2026-05-05 22:46 | 30.84783 | -96.06585 | 24783 ft | 466 kts | 163° |
| 2026-05-05 22:47 | 30.81918 | -96.04993 | 24713 ft | 447 kts | 164° |
| 2026-05-05 22:47 | 30.79157 | -96.03474 | 24249 ft | 439 kts | 164° |
| 2026-05-05 22:47 | 30.76403 | -96.01971 | 23713 ft | 434 kts | 164° |
| 2026-05-05 22:47 | 30.73676 | -96.00488 | 23085 ft | 431 kts | 163° |
| 2026-05-05 22:48 | 30.70968 | -95.99014 | 22441 ft | 427 kts | 163° |
| 2026-05-05 22:48 | 30.68289 | -95.97553 | 21828 ft | 423 kts | 163° |
| 2026-05-05 22:48 | 30.65636 | -95.96104 | 21231 ft | 418 kts | 163° |
| 2026-05-05 22:48 | 30.63046 | -95.94688 | 20651 ft | 413 kts | 162° |
| 2026-05-05 22:49 | 30.60448 | -95.93270 | 20079 ft | 409 kts | 162° |
| 2026-05-05 22:49 | 30.57880 | -95.91868 | 19506 ft | 405 kts | 162° |
| 2026-05-05 22:49 | 30.55337 | -95.90481 | 18936 ft | 401 kts | 162° |
| 2026-05-05 22:49 | 30.52823 | -95.89111 | 18351 ft | 397 kts | 161° |
| 2026-05-05 22:50 | 30.50368 | -95.87769 | 17737 ft | 383 kts | 161° |
| 2026-05-05 22:50 | 30.48070 | -95.86198 | 17273 ft | 385 kts | 148° |
| 2026-05-05 22:50 | 30.46058 | -95.84235 | 17053 ft | 380 kts | 145° |
| 2026-05-05 22:50 | 30.44086 | -95.82209 | 16526 ft | 378 kts | 144° |
| 2026-05-05 22:51 | 30.42123 | -95.80198 | 16000 ft | 375 kts | 145° |
| 2026-05-05 22:51 | 30.40156 | -95.78221 | 15620 ft | 369 kts | 145° |
| 2026-05-05 22:51 | 30.38244 | -95.76324 | 15398 ft | 355 kts | 146° |
| 2026-05-05 22:51 | 30.36393 | -95.74501 | 15232 ft | 343 kts | 146° |
| 2026-05-05 22:52 | 30.34608 | -95.72757 | 14892 ft | 338 kts | 146° |
| 2026-05-05 22:52 | 30.32806 | -95.71020 | 14493 ft | 336 kts | 146° |
| 2026-05-05 22:52 | 30.31010 | -95.69291 | 14085 ft | 335 kts | 146° |
| 2026-05-05 22:52 | 30.29217 | -95.67567 | 13641 ft | 335 kts | 146° |
| 2026-05-05 22:53 | 30.27428 | -95.65844 | 13165 ft | 334 kts | 146° |
| 2026-05-05 22:53 | 30.25667 | -95.64146 | 12735 ft | 332 kts | 145° |
| 2026-05-05 22:53 | 30.23896 | -95.62438 | 12368 ft | 329 kts | 145° |
| 2026-05-05 22:53 | 30.22142 | -95.60748 | 11984 ft | 326 kts | 145° |
| 2026-05-05 22:54 | 30.20404 | -95.59076 | 11583 ft | 323 kts | 145° |
| 2026-05-05 22:54 | 30.18682 | -95.57422 | 11169 ft | 320 kts | 144° |
| 2026-05-05 22:54 | 30.16973 | -95.55781 | 10756 ft | 318 kts | 144° |
| 2026-05-05 22:54 | 30.15278 | -95.54154 | 10341 ft | 316 kts | 144° |
| 2026-05-05 22:55 | 30.13601 | -95.52543 | 10130 ft | 307 kts | 144° |
| 2026-05-05 22:55 | 30.11976 | -95.50983 | 9923 ft | 299 kts | 144° |
| 2026-05-05 22:55 | 30.10449 | -95.49469 | 9555 ft | 298 kts | 137° |
| 2026-05-05 22:55 | 30.09417 | -95.47391 | 9090 ft | 300 kts | 109° |
| 2026-05-05 22:56 | 30.09186 | -95.44983 | 8723 ft | 302 kts | 94° |
| 2026-05-05 22:56 | 30.09188 | -95.42551 | 8300 ft | 302 kts | 92° |
| 2026-05-05 22:56 | 30.09215 | -95.40135 | 7931 ft | 300 kts | 92° |
| 2026-05-05 22:56 | 30.09240 | -95.37733 | 7567 ft | 298 kts | 92° |
| 2026-05-05 22:57 | 30.09256 | -95.35341 | 7172 ft | 297 kts | 92° |
| 2026-05-05 22:57 | 30.09263 | -95.32963 | 6813 ft | 294 kts | 92° |
| 2026-05-05 22:57 | 30.09267 | -95.30636 | 6471 ft | 292 kts | 92° |
| 2026-05-05 22:57 | 30.09270 | -95.28330 | 6322 ft | 283 kts | 93° |
| 2026-05-05 22:58 | 30.09270 | -95.26092 | 6196 ft | 273 kts | 92° |
| 2026-05-05 22:58 | 30.09272 | -95.23920 | 6052 ft | 264 kts | 93° |
| 2026-05-05 22:58 | 30.09270 | -95.21848 | 5826 ft | 261 kts | 94° |
| 2026-05-05 22:58 | 30.09277 | -95.19757 | 5514 ft | 256 kts | 93° |
| 2026-05-05 22:59 | 30.09287 | -95.17739 | 5255 ft | 244 kts | 94° |
| 2026-05-05 22:59 | 30.09226 | -95.15847 | 4950 ft | 231 kts | 105° |
| 2026-05-05 22:59 | 30.08696 | -95.14175 | 4710 ft | 215 kts | 129° |
| 2026-05-05 22:59 | 30.07730 | -95.12964 | 4464 ft | 198 kts | 149° |
| 2026-05-05 23:00 | 30.05333 | -95.11950 | 3988 ft | 174 kts | 179° |
| 2026-05-05 23:00 | 30.04172 | -95.12030 | 3779 ft | 164 kts | 193° |
| 2026-05-05 23:00 | 30.03122 | -95.12438 | 3591 ft | 156 kts | 207° |
| 2026-05-05 23:01 | 30.02239 | -95.13105 | 3403 ft | 149 kts | 218° |
| 2026-05-05 23:01 | 30.01520 | -95.13996 | 3234 ft | 153 kts | 231° |
| 2026-05-05 23:01 | 30.01006 | -95.15080 | 3040 ft | 155 kts | 244° |
| 2026-05-05 23:01 | 30.00738 | -95.16270 | 2851 ft | 153 kts | 255° |
| 2026-05-05 23:02 | 30.00696 | -95.17496 | 2673 ft | 153 kts | 263° |
| 2026-05-05 23:02 | 30.00702 | -95.18740 | 2506 ft | 157 kts | 263° |
| 2026-05-05 23:02 | 30.00706 | -95.20000 | 2284 ft | 160 kts | 263° |
| 2026-05-05 23:02 | 30.00712 | -95.21266 | 2091 ft | 155 kts | 262° |
| 2026-05-05 23:03 | 30.00718 | -95.22495 | 1911 ft | 149 kts | 261° |
| 2026-05-05 23:03 | 30.00723 | -95.23631 | 1754 ft | 133 kts | 261° |
| 2026-05-05 23:03 | 30.00725 | -95.24667 | 1551 ft | 126 kts | 259° |
| 2026-05-05 23:03 | 30.00720 | -95.25767 | 1471 ft | 144 kts | 262° |
| 2026-05-05 23:04 | 30.00726 | -95.26937 | 1249 ft | 149 kts | 262° |
| 2026-05-05 23:04 | 30.00727 | -95.28085 | 1001 ft | 139 kts | 261° |
| 2026-05-05 23:04 | 30.00726 | -95.29214 | 817 ft | 140 kts | 261° |
| 2026-05-05 23:04 | 30.00717 | -95.30331 | 606 ft | 137 kts | 262° |
| 2026-05-05 23:05 | 30.00719 | -95.31442 | 385 ft | 142 kts | 263° |
| 2026-05-05 23:05 | 30.00716 | -95.32588 | 206 ft | 142 kts | 266° |
| 2026-05-05 23:05 | 30.00717 | -95.33704 | 107 ft | 130 kts | 269° |
| 2026-05-05 23:05 | 30.00718 | -95.34570 | 106 ft | 86 kts | 270° |
| 2026-05-05 23:06 | 30.00718 | -95.35079 | 106 ft | 41 kts | 270° |
| 2026-05-05 23:06 | 30.00694 | -95.35341 | 105 ft | 32 kts | 251° |
| 2026-05-05 23:06 | 30.00599 | -95.35563 | 104 ft | 29 kts | 242° |
| 2026-05-05 23:06 | 30.00535 | -95.35750 | 105 ft | 19 kts | 216° |
| 2026-05-05 23:07 | 30.00406 | -95.35759 | 106 ft | 18 kts | 182° |
| 2026-05-05 23:07 | 30.00291 | -95.35722 | 106 ft | 18 kts | 133° |
| 2026-05-05 23:07 | 30.00206 | -95.35625 | 106 ft | 17 kts | 136° |
| 2026-05-05 23:07 | 30.00120 | -95.35539 | 106 ft | 16 kts | 150° |
| 2026-05-05 23:08 | 30.00018 | -95.35491 | 106 ft | 16 kts | 171° |
| 2026-05-05 23:08 | 29.99891 | -95.35486 | 106 ft | 20 kts | 180° |
| 2026-05-05 23:08 | 29.99755 | -95.35486 | 106 ft | 19 kts | 180° |
| 2026-05-05 23:08 | 29.99623 | -95.35485 | 106 ft | 19 kts | 179° |
| 2026-05-05 23:09 | 29.99491 | -95.35484 | 106 ft | 20 kts | 179° |
| 2026-05-05 23:09 | 29.99344 | -95.35484 | 106 ft | 22 kts | 179° |
| 2026-05-05 23:09 | 29.99178 | -95.35485 | 106 ft | 25 kts | 180° |
| 2026-05-05 23:09 | 29.99008 | -95.35483 | 106 ft | 23 kts | 179° |
| 2026-05-05 23:10 | 29.98850 | -95.35482 | 106 ft | 22 kts | 175° |
| 2026-05-05 23:10 | 29.98715 | -95.35406 | 106 ft | 22 kts | 153° |
| 2026-05-05 23:10 | 29.98584 | -95.35325 | 106 ft | 21 kts | 152° |
| 2026-05-05 23:10 | 29.98455 | -95.35249 | 105 ft | 20 kts | 151° |
| 2026-05-05 23:11 | 29.98380 | -95.35131 | 106 ft | 21 kts | 88° |
| 2026-05-05 23:11 | 29.98379 | -95.34956 | 106 ft | 24 kts | 90° |
| 2026-05-05 23:11 | 29.98379 | -95.34752 | 106 ft | 26 kts | 91° |
| 2026-05-05 23:11 | 29.98377 | -95.34545 | 106 ft | 25 kts | 90° |
| 2026-05-05 23:12 | 29.98376 | -95.34353 | 106 ft | 23 kts | 90° |
| 2026-05-05 23:12 | 29.98377 | -95.34158 | 106 ft | 25 kts | 90° |
| 2026-05-05 23:12 | 29.98321 | -95.33976 | 106 ft | 23 kts | 104° |
| 2026-05-05 23:12 | 29.98317 | -95.33793 | 106 ft | 23 kts | 90° |
| 2026-05-05 23:13 | 29.98361 | -95.33665 | 106 ft | 16 kts | 1° |
| 2026-05-05 23:13 | 29.98464 | -95.33653 | 106 ft | 12 kts | 56° |
| 2026-05-05 23:13 | 29.98467 | -95.33587 | 106 ft | 0 kts | 89° |
| 2026-05-05 23:13 | 29.98467 | -95.33586 | 106 ft | 0 kts | 89° |